createdAt,value
2022-12-28T00:02:11.277Z,2.17
2022-12-28T00:04:37.823Z,1.77
2022-12-28T00:07:04.706Z,1.65
2022-12-28T00:09:31.118Z,1.67
2022-12-28T00:11:57.540Z,1.67
2022-12-28T00:14:25.042Z,2.15
2022-12-28T00:16:51.512Z,1.52
2022-12-28T00:19:18.154Z,1.70
2022-12-28T00:21:45.723Z,1.60
2022-12-28T00:24:30.395Z,1.60
2022-12-28T00:26:57.005Z,1.80
2022-12-28T00:29:23.727Z,1.65
2022-12-28T00:31:50.286Z,2.00
2022-12-28T00:34:16.805Z,2.58
2022-12-28T00:37:10.586Z,2.65
2022-12-28T00:39:29.728Z,1.63
2022-12-28T00:41:56.212Z,1.75
2022-12-28T00:44:22.617Z,2.05
2022-12-28T00:46:49.624Z,1.63
2022-12-28T00:49:16.033Z,1.67
2022-12-28T00:51:42.543Z,1.70
2022-12-28T00:54:09.240Z,1.92
2022-12-28T00:56:35.736Z,1.70
2022-12-28T00:59:02.201Z,2.05
2022-12-28T01:01:29.139Z,1.52
2022-12-28T01:03:57.004Z,2.08
2022-12-28T01:06:23.571Z,1.77
2022-12-28T01:08:50.110Z,1.85
2022-12-28T01:11:20.575Z,1.80
2022-12-28T01:13:47.984Z,1.92
2022-12-28T01:16:17.371Z,2.40
2022-12-28T01:18:45.024Z,1.85
2022-12-28T01:21:16.773Z,2.15
2022-12-28T01:23:44.291Z,1.85
2022-12-28T01:26:10.905Z,1.75
2022-12-28T01:28:37.549Z,2.13
2022-12-28T01:31:09.433Z,1.75
2022-12-28T01:33:36.301Z,1.70
2022-12-28T01:36:15.094Z,1.80
2022-12-28T01:38:41.842Z,1.80
2022-12-28T01:41:14.012Z,2.25
2022-12-28T01:44:03.707Z,2.22
2022-12-28T01:46:37.798Z,1.95
2022-12-28T01:49:22.601Z,1.83
2022-12-28T01:52:07.363Z,1.98
2022-12-28T01:54:41.650Z,1.80
2022-12-28T01:57:08.195Z,2.38
2022-12-28T01:59:38.144Z,1.95
2022-12-28T02:02:04.726Z,2.05
2022-12-28T02:04:31.348Z,1.90
2022-12-28T02:06:57.811Z,2.08
2022-12-28T02:09:30.044Z,2.10
2022-12-28T02:11:56.542Z,1.80
2022-12-28T02:14:23.052Z,1.95
2022-12-28T02:16:49.580Z,1.70
2022-12-28T02:19:20.421Z,1.90
2022-12-28T02:22:01.581Z,1.77
2022-12-28T02:24:43.353Z,1.63
2022-12-28T02:27:40.988Z,1.75
2022-12-28T02:30:09.701Z,1.85
2022-12-28T02:32:44.534Z,2.10
2022-12-28T02:35:37.002Z,1.67
2022-12-28T02:38:27.175Z,1.73
2022-12-28T02:40:58.610Z,1.90
2022-12-28T02:43:25.890Z,1.90
2022-12-28T02:46:10.851Z,1.63
2022-12-28T02:49:00.554Z,1.55
2022-12-28T02:51:45.506Z,1.70
2022-12-28T02:55:07.441Z,1.60
2022-12-28T02:57:52.415Z,1.80
2022-12-28T03:00:20.640Z,1.77
2022-12-28T03:03:04.747Z,2.33
2022-12-28T03:06:15.988Z,1.90
2022-12-28T03:08:48.633Z,1.60
2022-12-28T03:11:22.358Z,2.50
2022-12-28T03:13:56.249Z,1.88
2022-12-28T03:16:29.691Z,1.83
2022-12-28T03:19:19.899Z,1.70
2022-12-28T03:22:06.514Z,1.83
2022-12-28T03:24:53.839Z,1.75
2022-12-28T03:27:40.796Z,1.80
2022-12-28T03:30:33.279Z,2.03
2022-12-28T03:32:59.967Z,2.78
2022-12-28T03:35:55.197Z,2.00
2022-12-28T03:38:29.529Z,1.95
2022-12-28T03:41:16.953Z,2.38
2022-12-28T03:43:47.744Z,1.80
2022-12-28T03:46:21.260Z,2.17
2022-12-28T03:48:48.902Z,2.10
2022-12-28T03:51:17.210Z,2.75
2022-12-28T03:53:45.795Z,2.17
2022-12-28T03:56:16.603Z,2.08
2022-12-28T03:58:43.461Z,2.03
2022-12-28T04:01:10.147Z,2.28
2022-12-28T04:03:36.719Z,1.92
2022-12-28T04:06:03.667Z,2.50
2022-12-28T04:08:31.000Z,2.10
2022-12-28T04:10:59.569Z,1.85
2022-12-28T04:13:29.524Z,1.83
2022-12-28T04:16:00.728Z,2.00
2022-12-28T04:18:27.355Z,2.00
2022-12-28T04:20:54.287Z,2.10
2022-12-28T04:23:23.596Z,2.63
2022-12-28T04:26:03.248Z,2.05
2022-12-28T04:28:30.589Z,2.28
2022-12-28T04:30:58.126Z,2.00
2022-12-28T04:33:24.967Z,2.05
2022-12-28T04:35:51.814Z,1.77
2022-12-28T04:38:18.719Z,1.90
2022-12-28T04:40:45.328Z,1.67
2022-12-28T04:43:11.991Z,2.00
2022-12-28T04:45:38.644Z,2.03
2022-12-28T04:48:05.502Z,1.98
2022-12-28T04:50:32.014Z,1.83
2022-12-28T04:52:58.627Z,2.15
2022-12-28T04:55:32.484Z,2.67
2022-12-28T04:58:00.346Z,1.70
2022-12-28T05:00:26.960Z,2.42
2022-12-28T05:02:53.561Z,2.33
2022-12-28T05:05:20.215Z,2.28
2022-12-28T05:07:46.693Z,2.90
2022-12-28T05:10:13.098Z,2.33
2022-12-28T05:12:39.651Z,2.30
2022-12-28T05:15:06.791Z,2.65
2022-12-28T05:17:33.330Z,2.38
2022-12-28T05:19:59.941Z,3.22
2022-12-28T05:22:26.418Z,2.55
2022-12-28T05:24:52.916Z,2.60
2022-12-28T05:27:19.398Z,3.13
2022-12-28T05:29:45.861Z,2.85
2022-12-28T05:32:12.318Z,3.40
2022-12-28T05:34:39.961Z,4.25
2022-12-28T05:37:06.367Z,3.00
2022-12-28T05:39:32.955Z,2.78
2022-12-28T05:42:00.746Z,2.90
2022-12-28T05:44:27.473Z,3.33
2022-12-28T05:46:54.037Z,2.30
2022-12-28T05:49:20.622Z,2.67
2022-12-28T05:51:52.490Z,2.90
2022-12-28T05:54:19.382Z,3.17
2022-12-28T05:56:46.151Z,2.92
2022-12-28T05:59:13.636Z,2.88
2022-12-28T06:01:43.161Z,3.45
2022-12-28T06:04:18.225Z,3.30
2022-12-28T06:06:48.021Z,3.00
2022-12-28T06:09:15.071Z,3.35
2022-12-28T06:11:41.989Z,2.88
2022-12-28T06:14:08.693Z,3.20
2022-12-28T06:16:38.183Z,3.15
2022-12-28T06:19:09.871Z,3.00
2022-12-28T06:21:38.213Z,3.80
2022-12-28T06:24:05.598Z,3.42
2022-12-28T06:26:33.869Z,3.13
2022-12-28T06:29:01.966Z,3.78
2022-12-28T06:31:34.171Z,3.95
2022-12-28T06:34:02.116Z,3.55
2022-12-28T06:36:34.667Z,3.97
2022-12-28T06:39:02.637Z,3.75
2022-12-28T06:41:29.652Z,3.20
2022-12-28T06:43:57.009Z,3.35
2022-12-28T06:46:26.083Z,3.55
2022-12-28T06:48:52.977Z,4.55
2022-12-28T06:51:26.700Z,3.70
2022-12-28T06:53:54.143Z,3.50
2022-12-28T06:56:26.404Z,4.07
2022-12-28T06:58:58.461Z,3.55
2022-12-28T07:01:32.890Z,3.30
2022-12-28T07:04:00.617Z,4.53
2022-12-28T07:06:28.542Z,3.80
2022-12-28T07:08:59.790Z,3.78
2022-12-28T07:11:26.405Z,3.67
2022-12-28T07:13:52.953Z,3.70
2022-12-28T07:16:21.309Z,4.63
2022-12-28T07:18:48.255Z,5.95
2022-12-28T07:21:20.587Z,4.22
2022-12-28T07:23:47.901Z,4.05
2022-12-28T07:26:20.531Z,3.40
2022-12-28T07:28:48.676Z,4.50
2022-12-28T07:31:18.019Z,3.53
2022-12-28T07:33:45.703Z,4.00
2022-12-28T07:36:15.023Z,4.05
2022-12-28T07:38:41.766Z,3.88
2022-12-28T07:41:14.497Z,3.47
2022-12-28T07:43:41.045Z,3.33
2022-12-28T07:46:19.244Z,4.10
2022-12-28T07:48:46.262Z,3.13
2022-12-28T07:51:27.196Z,3.70
2022-12-28T07:53:55.098Z,3.55
2022-12-28T07:56:22.886Z,3.35
2022-12-28T07:58:53.575Z,3.53
2022-12-28T08:01:22.064Z,3.15
2022-12-28T08:03:48.878Z,3.80
2022-12-28T08:06:19.551Z,3.42
2022-12-28T08:08:48.169Z,4.10
2022-12-28T08:11:17.185Z,3.50
2022-12-28T08:13:45.418Z,3.58
2022-12-28T08:16:13.382Z,3.30
2022-12-28T08:18:40.538Z,3.75
2022-12-28T08:21:12.642Z,3.50
2022-12-28T08:23:39.499Z,2.97
2022-12-28T08:26:09.953Z,3.50
2022-12-28T08:28:38.118Z,3.40
2022-12-28T08:31:13.063Z,3.35
2022-12-28T08:33:39.555Z,3.30
2022-12-28T08:36:06.841Z,2.60
2022-12-28T08:38:33.643Z,2.35
2022-12-28T08:41:02.375Z,2.65
2022-12-28T08:43:30.205Z,2.50
2022-12-28T08:46:05.809Z,3.42
2022-12-28T08:48:33.173Z,2.40
2022-12-28T08:51:04.878Z,2.28
2022-12-28T08:53:31.382Z,2.55
2022-12-28T08:56:13.340Z,1.70
2022-12-28T08:58:41.230Z,2.35
2022-12-28T09:01:15.939Z,2.00
2022-12-28T09:03:44.471Z,1.83
2022-12-28T09:06:13.769Z,1.33
2022-12-28T09:08:42.490Z,1.63
2022-12-28T09:11:13.249Z,1.38
2022-12-28T09:13:40.155Z,1.60
2022-12-28T09:16:11.655Z,1.55
2022-12-28T09:18:39.487Z,1.67
2022-12-28T09:21:08.405Z,1.30
2022-12-28T09:23:35.525Z,1.55
2022-12-28T09:26:13.239Z,1.40
2022-12-28T09:28:40.054Z,2.20
2022-12-28T09:31:08.871Z,1.30
2022-12-28T09:36:43.082Z,1.20
2022-12-28T09:39:20.907Z,1.35
2022-12-28T09:42:06.270Z,1.08
2022-12-28T09:44:41.728Z,1.70
2022-12-28T09:47:08.193Z,1.23
2022-12-28T09:49:43.659Z,1.25
2022-12-28T09:52:30.000Z,1.10
2022-12-28T09:55:26.980Z,1.30
2022-12-28T09:57:56.098Z,1.25
2022-12-28T10:00:24.016Z,1.88
2022-12-28T10:03:18.524Z,1.08
2022-12-28T10:05:45.219Z,1.20
2022-12-28T10:08:15.430Z,1.10
2022-12-28T10:13:55.803Z,1.08
2022-12-28T10:16:29.003Z,1.20
2022-12-28T10:19:01.184Z,1.88
2022-12-28T10:27:05.498Z,1.17
2022-12-28T10:29:33.928Z,1.50
2022-12-28T10:32:09.218Z,1.10
2022-12-28T10:35:04.268Z,0.85
2022-12-28T10:37:41.265Z,1.00
2022-12-28T10:40:37.699Z,1.00
2022-12-28T10:43:23.104Z,1.00
2022-12-28T10:45:52.810Z,1.00
2022-12-28T10:48:23.048Z,1.25
2022-12-28T10:51:13.313Z,1.65
2022-12-28T10:53:50.111Z,0.88
2022-12-28T10:56:31.763Z,1.05
2022-12-28T10:59:26.065Z,1.23
2022-12-28T11:02:36.132Z,1.27
2022-12-28T11:05:16.490Z,1.30
2022-12-28T11:07:52.914Z,1.27
2022-12-28T11:10:29.138Z,1.40
2022-12-28T11:13:12.493Z,1.05
2022-12-28T11:15:56.552Z,1.23
2022-12-28T11:18:24.826Z,1.20
2022-12-28T11:21:02.175Z,1.27
2022-12-28T11:23:37.324Z,1.23
2022-12-28T11:26:04.928Z,1.30
2022-12-28T11:28:32.534Z,1.02
2022-12-28T11:30:59.803Z,1.00
2022-12-28T11:33:44.708Z,0.90
2022-12-28T11:36:54.543Z,1.83
2022-12-28T11:39:34.045Z,1.13
2022-12-28T11:42:37.074Z,1.20
2022-12-28T11:44:54.859Z,0.90
2022-12-28T11:47:37.241Z,1.10
2022-12-28T11:50:43.281Z,1.40
2022-12-28T11:53:53.612Z,1.23
2022-12-28T11:56:30.419Z,2.20
2022-12-28T11:59:14.045Z,1.55
2022-12-28T12:01:54.444Z,1.23
2022-12-28T12:04:41.151Z,1.60
2022-12-28T12:07:22.047Z,1.70
2022-12-28T12:10:34.310Z,1.38
2022-12-28T12:13:27.178Z,1.52
2022-12-28T12:16:14.879Z,1.58
2022-12-28T12:18:56.883Z,2.33
2022-12-28T12:21:44.777Z,2.00
2022-12-28T12:24:31.380Z,1.85
2022-12-28T12:27:11.904Z,1.70
2022-12-28T12:29:50.306Z,1.70
2022-12-28T12:32:44.526Z,1.63
2022-12-28T12:35:20.758Z,1.45
2022-12-28T12:37:58.504Z,1.40
2022-12-28T12:40:51.187Z,1.50
2022-12-28T12:43:50.360Z,1.55
2022-12-28T12:46:41.871Z,1.80
2022-12-28T12:49:34.794Z,1.67
2022-12-28T12:52:31.684Z,1.38
2022-12-28T12:55:41.082Z,1.38
2022-12-28T12:58:34.571Z,1.70
2022-12-28T13:01:45.624Z,1.35
2022-12-28T13:07:27.672Z,1.42
2022-12-28T13:10:03.302Z,1.40
2022-12-28T13:12:40.048Z,1.88
2022-12-28T13:15:19.403Z,1.40
2022-12-28T13:18:44.565Z,1.40
2022-12-28T13:21:22.915Z,1.50
2022-12-28T13:23:53.534Z,1.50
2022-12-28T13:26:28.187Z,1.90
2022-12-28T13:28:58.292Z,1.85
2022-12-28T13:31:48.485Z,1.52
2022-12-28T13:34:35.509Z,1.80
2022-12-28T13:37:14.894Z,1.33
2022-12-28T13:39:45.405Z,1.38
2022-12-28T13:42:26.374Z,1.35
2022-12-28T13:45:09.085Z,1.30
2022-12-28T13:47:56.241Z,1.80
2022-12-28T13:50:25.455Z,1.50
2022-12-28T13:53:11.220Z,1.42
2022-12-28T13:55:59.055Z,1.67
2022-12-28T13:58:36.571Z,1.35
2022-12-28T14:01:12.785Z,1.55
2022-12-28T14:03:46.428Z,1.90
2022-12-28T14:06:26.872Z,1.70
2022-12-28T14:08:58.494Z,2.07
2022-12-28T14:11:40.217Z,1.73
2022-12-28T14:14:15.353Z,2.10
2022-12-28T14:16:45.091Z,1.60
2022-12-28T14:19:13.325Z,1.67
2022-12-28T14:21:53.274Z,1.73
2022-12-28T14:24:28.561Z,1.65
2022-12-28T14:27:01.812Z,1.80
2022-12-28T14:29:35.031Z,1.75
2022-12-28T14:32:06.476Z,2.22
2022-12-28T14:34:42.466Z,2.05
2022-12-28T14:37:23.711Z,2.83
2022-12-28T14:39:55.604Z,2.35
2022-12-28T14:42:24.944Z,2.42
2022-12-28T14:44:56.491Z,1.80
2022-12-28T14:47:47.974Z,2.20
2022-12-28T14:50:29.236Z,2.10
2022-12-28T14:53:15.225Z,4.97
2022-12-28T14:56:05.440Z,1.98
2022-12-28T14:59:01.637Z,1.75
2022-12-28T15:01:55.470Z,2.20
2022-12-28T15:04:42.631Z,1.42
2022-12-28T15:07:12.441Z,1.67
2022-12-28T15:09:42.274Z,1.92
2022-12-28T15:12:23.177Z,1.63
2022-12-28T15:14:54.862Z,2.17
2022-12-28T15:17:29.748Z,2.10
2022-12-28T15:20:04.354Z,2.03
2022-12-28T15:25:31.767Z,1.90
2022-12-28T15:28:04.844Z,1.52
2022-12-28T15:30:34.992Z,1.50
2022-12-28T15:33:03.445Z,1.70
2022-12-28T15:35:31.116Z,1.67
2022-12-28T15:37:59.133Z,1.42
2022-12-28T15:40:28.716Z,1.60
2022-12-28T15:42:57.191Z,2.35
2022-12-28T15:45:37.969Z,1.55
2022-12-28T15:48:07.905Z,2.20
2022-12-28T15:50:35.843Z,1.73
2022-12-28T15:53:08.672Z,1.45
2022-12-28T15:55:38.577Z,1.40
2022-12-28T15:58:08.152Z,1.40
2022-12-28T16:00:40.472Z,1.75
2022-12-28T16:03:13.539Z,1.90
2022-12-28T16:05:44.188Z,1.50
2022-12-28T16:08:20.699Z,1.75
2022-12-28T16:10:51.220Z,1.40
2022-12-28T16:13:24.489Z,1.58
2022-12-28T16:15:53.536Z,1.60
2022-12-28T16:18:22.399Z,1.40
2022-12-28T16:21:03.139Z,1.85
2022-12-28T16:26:12.439Z,1.63
2022-12-28T16:28:43.761Z,2.17
2022-12-28T16:31:38.305Z,1.98
2022-12-28T16:34:16.234Z,1.65
2022-12-28T16:36:47.372Z,1.80
2022-12-28T16:39:17.491Z,1.63
2022-12-28T16:41:53.042Z,1.58
2022-12-28T16:44:28.997Z,1.70
2022-12-28T16:47:01.572Z,1.52
2022-12-28T16:49:32.113Z,1.73
2022-12-28T16:52:09.998Z,1.77
2022-12-28T16:54:42.984Z,2.90
2022-12-28T16:57:11.030Z,1.50
2022-12-28T16:59:39.914Z,1.27
2022-12-28T17:02:10.413Z,1.60
2022-12-28T17:04:46.178Z,1.63
2022-12-28T17:07:18.742Z,4.78
2022-12-28T17:09:52.094Z,1.85
2022-12-28T17:12:35.029Z,1.70
2022-12-28T17:15:05.321Z,1.40
2022-12-28T17:17:51.370Z,1.52
2022-12-28T17:20:18.828Z,1.50
2022-12-28T17:22:56.736Z,1.52
2022-12-28T17:25:28.285Z,1.63
2022-12-28T17:28:00.003Z,2.17
2022-12-28T17:30:41.221Z,1.70
2022-12-28T17:33:14.535Z,1.55
2022-12-28T17:35:42.788Z,1.88
2022-12-28T17:38:22.295Z,1.85
2022-12-28T17:40:56.803Z,1.98
2022-12-28T17:43:24.130Z,1.80
2022-12-28T17:45:56.469Z,1.42
2022-12-28T17:48:31.831Z,1.77
2022-12-28T17:51:02.807Z,1.48
2022-12-28T17:53:38.786Z,1.70
2022-12-28T17:56:11.698Z,1.48
2022-12-28T17:58:39.745Z,1.80
2022-12-28T18:01:09.101Z,1.70
2022-12-28T18:03:41.470Z,1.90
2022-12-28T18:06:12.142Z,1.70
2022-12-28T18:08:41.772Z,1.50
2022-12-28T18:11:16.060Z,1.92
2022-12-28T18:13:50.853Z,1.80
2022-12-28T18:16:20.770Z,1.85
2022-12-28T18:18:48.682Z,1.63
2022-12-28T18:21:23.553Z,2.10
2022-12-28T18:23:55.151Z,1.90
2022-12-28T18:26:33.234Z,2.22
2022-12-28T18:29:01.180Z,2.22
2022-12-28T18:34:27.596Z,2.25
2022-12-28T18:37:03.613Z,2.20
2022-12-28T18:39:41.571Z,2.00
2022-12-28T18:42:12.452Z,1.90
2022-12-28T18:44:46.584Z,2.45
2022-12-28T18:47:21.262Z,2.13
2022-12-28T18:49:51.835Z,2.40
2022-12-28T18:52:29.516Z,2.22
2022-12-28T18:57:54.793Z,2.10
2022-12-28T19:00:24.553Z,2.20
2022-12-28T19:03:03.395Z,2.10
2022-12-28T19:05:38.538Z,2.10
2022-12-28T19:08:10.263Z,2.25
2022-12-28T19:10:41.846Z,2.28
2022-12-28T19:13:28.662Z,2.30
2022-12-28T19:16:09.749Z,1.85
2022-12-28T19:21:27.729Z,2.00
2022-12-28T19:24:11.088Z,2.10
2022-12-28T19:26:40.938Z,2.17
2022-12-28T19:29:16.052Z,2.25
2022-12-28T19:31:53.233Z,2.22
2022-12-28T19:37:22.533Z,1.98
2022-12-28T19:39:57.613Z,1.75
2022-12-28T19:42:32.958Z,2.20
2022-12-28T19:45:11.508Z,2.20
2022-12-28T19:47:49.709Z,2.03
2022-12-28T19:50:22.019Z,2.00
2022-12-28T19:52:49.994Z,1.88
2022-12-28T19:55:22.767Z,1.80
2022-12-28T19:57:51.765Z,1.67
2022-12-28T20:00:25.026Z,1.95
2022-12-28T20:05:39.964Z,1.38
2022-12-28T20:08:14.123Z,2.20
2022-12-28T20:10:51.604Z,1.85
2022-12-28T20:13:25.665Z,1.60
2022-12-28T20:15:57.204Z,2.00
2022-12-28T20:18:31.731Z,1.60
2022-12-28T20:21:24.374Z,1.40
2022-12-28T20:24:01.134Z,1.95
2022-12-28T20:26:32.716Z,1.85
2022-12-28T20:29:13.863Z,1.60
2022-12-28T20:31:48.475Z,1.63
2022-12-28T20:34:21.514Z,2.03
2022-12-28T20:36:53.452Z,1.58
2022-12-28T20:39:24.269Z,1.75
2022-12-28T20:42:10.824Z,1.52
2022-12-28T20:47:30.012Z,1.70
2022-12-28T20:49:59.505Z,1.40
2022-12-28T20:54:59.455Z,1.55
2022-12-28T20:57:35.010Z,1.40
2022-12-28T21:00:08.017Z,2.80
2022-12-28T21:02:47.463Z,1.35
2022-12-28T21:05:17.165Z,1.25
2022-12-28T21:07:47.788Z,1.23
2022-12-28T21:10:33.167Z,1.45
2022-12-28T21:13:01.300Z,1.30
2022-12-28T21:15:30.914Z,1.90
2022-12-28T21:18:01.340Z,2.17
2022-12-28T21:20:37.023Z,1.27
2022-12-28T21:23:06.639Z,1.40
2022-12-28T21:25:35.260Z,1.33
2022-12-28T21:28:07.360Z,1.20
2022-12-28T21:30:41.695Z,1.42
2022-12-28T21:33:15.914Z,1.75
2022-12-28T21:36:08.120Z,2.25
2022-12-28T21:38:43.103Z,1.40
2022-12-28T21:41:57.140Z,1.48
2022-12-28T21:44:26.159Z,1.63
2022-12-28T21:46:53.955Z,1.92
2022-12-28T21:49:29.054Z,1.70
2022-12-28T21:52:01.249Z,1.50
2022-12-28T21:54:38.549Z,1.10
2022-12-28T21:57:11.245Z,1.25
2022-12-28T21:59:47.715Z,1.40
2022-12-28T22:02:39.592Z,1.52
2022-12-28T22:05:32.203Z,1.52
2022-12-28T22:08:25.854Z,1.20
2022-12-28T22:11:17.198Z,1.30
2022-12-28T22:13:52.882Z,1.08
2022-12-28T22:16:28.860Z,1.65
2022-12-28T22:19:02.747Z,1.27
2022-12-28T22:21:35.077Z,1.20
2022-12-28T22:24:01.769Z,1.38
2022-12-28T22:26:30.712Z,2.40
2022-12-28T22:29:05.638Z,1.15
2022-12-28T22:31:41.626Z,1.10
2022-12-28T22:34:09.867Z,1.17
2022-12-28T22:39:48.181Z,1.40
2022-12-28T22:42:25.812Z,2.05
2022-12-28T22:44:58.912Z,1.55
2022-12-28T22:47:32.999Z,1.20
2022-12-28T22:50:04.513Z,1.27
2022-12-28T22:52:36.678Z,1.10
2022-12-28T22:55:19.640Z,1.20
2022-12-28T22:57:57.557Z,1.45
2022-12-28T23:00:30.569Z,1.48
2022-12-28T23:03:00.281Z,1.20
2022-12-28T23:05:27.176Z,1.40
2022-12-28T23:08:22.213Z,1.52
2022-12-28T23:10:55.915Z,1.10
2022-12-28T23:13:32.008Z,1.83
2022-12-28T23:16:28.318Z,1.45
2022-12-28T23:19:14.569Z,1.17
2022-12-28T23:22:15.073Z,1.35
2022-12-28T23:27:45.793Z,1.10
2022-12-28T23:30:29.902Z,1.52
2022-12-28T23:32:59.783Z,1.15
2022-12-28T23:38:35.549Z,1.10
2022-12-28T23:41:27.497Z,1.00
2022-12-28T23:43:54.138Z,1.20
2022-12-28T23:46:29.939Z,1.10
2022-12-28T23:48:57.651Z,1.00
2022-12-28T23:51:26.890Z,0.90
2022-12-28T23:53:57.237Z,0.73
2022-12-28T23:56:31.952Z,1.00
2022-12-28T23:59:00.739Z,0.77
